Time;durP1;ratioP1;P1;durP2;ratioP2;P2;SDS_P1;SDS_P2;PMS_P1;PMS_P2;Temp;Humidity;BMP_temperature;BMP_pressure;BME280_temperature;BME280_humidity;BME280_pressure;Samples;Min_cycle;Max_cycle;Signal;HPM_P1;HPM_P2
2021/09/29 00:02:08;;;;;;;1036.00;927.15;;;;;;;;;;5006177;28;20481;-79
2021/09/29 00:04:34;;;;;;;1043.82;934.45;;;;;;;;;;5005999;28;20551;-78
2021/09/29 00:07:00;;;;;;;1045.38;936.08;;;;;;;;;;5007719;28;20478;-78
2021/09/29 00:09:26;;;;;;;1039.68;930.60;;;;;;;;;;5007923;28;20034;-79
2021/09/29 00:11:52;;;;;;;1035.70;926.70;;;;;;;;;;5006975;28;20076;-79
2021/09/29 00:14:18;;;;;;;1044.53;935.28;;;;;;;;;;5006695;28;20037;-80
2021/09/29 00:16:44;;;;;;;1048.55;939.28;;;;;;;;;;5007190;28;20234;-78
2021/09/29 00:19:11;;;;;;;1037.13;928.47;;;;;;;;;;5006138;28;20033;-80
2021/09/29 00:21:37;;;;;;;1042.78;933.75;;;;;;;;;;5007929;28;20104;-81
2021/09/29 00:24:03;;;;;;;1041.47;932.60;;;;;;;;;;5007291;28;20160;-78
2021/09/29 00:26:29;;;;;;;1041.82;933.10;;;;;;;;;;5006357;28;20062;-79
2021/09/29 00:28:55;;;;;;;1041.32;932.47;;;;;;;;;;5009463;28;20030;-78
2021/09/29 00:31:35;;;;;;;1037.50;928.42;;;;;;;;;;5005703;28;20030;-80
2021/09/29 00:34:21;;;;;;;1025.97;917.60;;;;;;;;;;5003983;28;20029;-79
2021/09/29 00:36:48;;;;;;;1033.43;924.67;;;;;;;;;;5007616;28;20025;-77
2021/09/29 00:39:14;;;;;;;1039.47;930.30;;;;;;;;;;5007358;28;20107;-79
2021/09/29 00:41:40;;;;;;;1038.75;929.53;;;;;;;;;;5005912;28;20382;-79
2021/09/29 00:44:07;;;;;;;1035.47;926.50;;;;;;;;;;5011847;28;20385;-78
2021/09/29 00:46:33;;;;;;;1033.95;924.97;;;;;;;;;;5007894;28;20513;-79
2021/09/29 00:48:59;;;;;;;1036.65;927.58;;;;;;;;;;5005776;28;20497;-79
2021/09/29 00:51:25;;;;;;;1039.55;930.50;;;;;;;;;;5005417;28;20188;-78
2021/09/29 00:53:52;;;;;;;1032.75;924.17;;;;;;;;;;5006171;28;20061;-78
2021/09/29 00:56:19;;;;;;;1042.43;933.17;;;;;;;;;;5007175;28;20033;-77
2021/09/29 00:58:45;;;;;;;1034.68;925.65;;;;;;;;;;5009821;28;20466;-78
2021/09/29 01:01:11;;;;;;;1035.53;926.75;;;;;;;;;;5010856;28;20026;-78
2021/09/29 01:03:38;;;;;;;1034.45;925.72;;;;;;;;;;5007131;28;20084;-78
2021/09/29 01:06:08;;;;;;;1042.00;933.03;;;;;;;;;;5011010;28;20037;-80
2021/09/29 01:08:38;;;;;;;1020.72;912.38;;;;;;;;;;5010914;28;20843;-81
2021/09/29 01:11:12;;;;;;;1033.07;924.17;;;;;;;;;;5010999;28;20037;-81
2021/09/29 01:13:43;;;;;;;1031.75;922.78;;;;;;;;;;5010943;28;20104;-80
2021/09/29 01:16:11;;;;;;;;;;;;;;;;;;5009992;28;20080;-78
2021/09/29 01:18:41;;;;;;;1004.65;896.40;;;;;;;;;;5011163;28;19964;-79
2021/09/29 01:21:14;;;;;;;1023.33;914.53;;;;;;;;;;5010384;28;20057;-79
2021/09/29 01:23:59;;;;;;;1029.50;919.83;;;;;;;;;;5009092;28;20045;-79
2021/09/29 01:26:30;;;;;;;1027.43;918.47;;;;;;;;;;5010705;28;20253;-79
2021/09/29 01:28:55;;;;;;;;;;;;;;;;;;5009897;28;20394;-81
2021/09/29 01:31:22;;;;;;;1005.05;896.67;;;;;;;;;;5025566;28;19940;-80
2021/09/29 01:33:48;;;;;;;1015.22;906.75;;;;;;;;;;5007148;28;20037;-81
2021/09/29 01:36:17;;;;;;;1029.80;920.60;;;;;;;;;;5013659;28;20503;-79
2021/09/29 01:38:43;;;;;;;1029.47;920.25;;;;;;;;;;5006924;28;20058;-79
2021/09/29 01:41:09;;;;;;;1035.47;926.15;;;;;;;;;;5007461;28;20022;-81
2021/09/29 01:43:35;;;;;;;1029.25;920.05;;;;;;;;;;5005934;28;20029;-82
2021/09/29 01:46:01;;;;;;;1047.18;934.17;;;;;;;;;;5003726;28;20041;-80
2021/09/29 01:48:27;;;;;;;1036.85;927.38;;;;;;;;;;5024584;28;20445;-79
2021/09/29 01:50:56;;;;;;;1026.78;918.00;;;;;;;;;;5008806;28;20032;-79
2021/09/29 01:53:23;;;;;;;1026.72;917.58;;;;;;;;;;5041640;28;20033;-79
2021/09/29 01:55:50;;;;;;;1019.80;911.35;;;;;;;;;;5005818;28;20429;-80
2021/09/29 01:58:16;;;;;;;1013.97;905.47;;;;;;;;;;5009445;28;20046;-79
2021/09/29 02:00:42;;;;;;;1021.05;912.25;;;;;;;;;;5010252;28;20104;-79
2021/09/29 02:03:08;;;;;;;1035.35;925.85;;;;;;;;;;5006651;28;20324;-79
2021/09/29 02:05:35;;;;;;;1031.57;922.10;;;;;;;;;;5008163;28;20096;-79
2021/09/29 02:08:03;;;;;;;1008.28;900.40;;;;;;;;;;5008657;28;20052;-79
2021/09/29 02:10:29;;;;;;;1008.95;900.22;;;;;;;;;;5014906;28;20467;-78
2021/09/29 02:12:55;;;;;;;1007.13;898.80;;;;;;;;;;5008572;28;20036;-81
2021/09/29 02:15:21;;;;;;;1013.95;905.33;;;;;;;;;;5009605;28;20088;-77
2021/09/29 02:17:48;;;;;;;1011.67;903.22;;;;;;;;;;5009654;28;20641;-79
2021/09/29 02:20:14;;;;;;;1020.53;911.70;;;;;;;;;;5008058;28;20025;-78
2021/09/29 02:22:40;;;;;;;1025.30;916.13;;;;;;;;;;5009635;28;20104;-81
2021/09/29 02:25:07;;;;;;;1020.88;911.85;;;;;;;;;;5008300;28;20136;-79
2021/09/29 02:27:33;;;;;;;1010.67;902.30;;;;;;;;;;5008702;28;20371;-78
2021/09/29 02:29:59;;;;;;;1001.80;893.85;;;;;;;;;;5009650;28;20033;-80
2021/09/29 02:32:25;;;;;;;998.28;890.53;;;;;;;;;;5009563;28;20669;-80
2021/09/29 02:34:51;;;;;;;1013.92;905.35;;;;;;;;;;5007706;28;20394;-79
2021/09/29 02:37:17;;;;;;;1001.08;893.20;;;;;;;;;;5008336;28;20022;-80
2021/09/29 02:39:43;;;;;;;1008.53;900.38;;;;;;;;;;5007889;28;20658;-80
2021/09/29 02:42:10;;;;;;;1020.03;908.10;;;;;;;;;;5009605;28;20018;-81
2021/09/29 02:44:36;;;;;;;1003.22;894.97;;;;;;;;;;5008421;28;20127;-78
2021/09/29 02:47:02;;;;;;;1012.92;904.28;;;;;;;;;;5007898;28;20065;-80
2021/09/29 02:49:28;;;;;;;1009.20;900.58;;;;;;;;;;5008135;28;20186;-78
2021/09/29 02:51:54;;;;;;;1004.63;896.28;;;;;;;;;;5009224;28;20030;-79
2021/09/29 02:54:20;;;;;;;1020.08;911.17;;;;;;;;;;5009253;28;20038;-80
2021/09/29 02:56:46;;;;;;;995.88;888.30;;;;;;;;;;5007616;28;20071;-80
2021/09/29 02:59:13;;;;;;;1008.08;899.45;;;;;;;;;;5009739;28;20137;-80
2021/09/29 03:01:40;;;;;;;1001.22;892.90;;;;;;;;;;5008391;28;20513;-78
2021/09/29 03:04:06;;;;;;;1008.22;899.35;;;;;;;;;;5004831;28;20036;-79
2021/09/29 03:06:32;;;;;;;1010.38;901.65;;;;;;;;;;5003164;28;20034;-78
2021/09/29 03:08:58;;;;;;;992.75;885.05;;;;;;;;;;5006613;28;21010;-79
2021/09/29 03:11:24;;;;;;;1009.42;900.65;;;;;;;;;;5004983;28;20030;-78
2021/09/29 03:13:50;;;;;;;1012.83;904.00;;;;;;;;;;5003806;28;20076;-78
2021/09/29 03:16:16;;;;;;;1003.33;894.88;;;;;;;;;;5040306;28;20030;-79
2021/09/29 03:18:43;;;;;;;990.63;882.95;;;;;;;;;;5008639;28;20034;-79
2021/09/29 03:21:09;;;;;;;1007.10;898.40;;;;;;;;;;5006691;28;20034;-78
2021/09/29 03:23:35;;;;;;;1015.10;906.17;;;;;;;;;;5007035;28;20363;-78
2021/09/29 03:26:01;;;;;;;995.67;887.50;;;;;;;;;;5008436;28;20397;-79
2021/09/29 03:28:27;;;;;;;999.78;891.10;;;;;;;;;;5006874;28;20041;-80
2021/09/29 03:30:53;;;;;;;1012.33;903.33;;;;;;;;;;5006992;28;20036;-80
2021/09/29 03:33:19;;;;;;;1006.13;897.33;;;;;;;;;;5005934;28;20456;-79
2021/09/29 03:35:45;;;;;;;970.50;863.85;;;;;;;;;;5007518;28;20029;-79
2021/09/29 03:38:11;;;;;;;993.35;885.58;;;;;;;;;;5006692;28;20021;-78
2021/09/29 03:40:37;;;;;;;993.72;885.78;;;;;;;;;;5006876;28;20468;-78
2021/09/29 03:43:04;;;;;;;998.85;890.83;;;;;;;;;;5008065;28;20029;-78
2021/09/29 03:45:30;;;;;;;1000.67;892.50;;;;;;;;;;5006150;28;20061;-78
2021/09/29 03:47:56;;;;;;;998.22;890.30;;;;;;;;;;5007810;28;20482;-79
2021/09/29 03:50:22;;;;;;;1002.95;894.78;;;;;;;;;;5006617;28;20083;-80
2021/09/29 03:52:48;;;;;;;1005.00;896.55;;;;;;;;;;5011162;28;20029;-79
2021/09/29 03:55:14;;;;;;;974.95;868.30;;;;;;;;;;5007061;28;20639;-79
2021/09/29 03:57:40;;;;;;;999.67;891.63;;;;;;;;;;5007546;28;20107;-78
2021/09/29 04:00:10;;;;;;;997.13;889.38;;;;;;;;;;5007597;28;20109;-80
2021/09/29 04:02:37;;;;;;;1006.78;898.17;;;;;;;;;;5006445;28;20077;-80
2021/09/29 04:05:04;;;;;;;1019.08;910.05;;;;;;;;;;5005495;28;20101;-80
2021/09/29 04:07:30;;;;;;;1015.58;906.80;;;;;;;;;;5006187;28;20052;-79
2021/09/29 04:09:56;;;;;;;1005.70;897.55;;;;;;;;;;5006249;28;20034;-79
2021/09/29 04:12:22;;;;;;;1020.50;911.35;;;;;;;;;;5007405;28;20269;-78
2021/09/29 04:14:48;;;;;;;1009.17;900.50;;;;;;;;;;5006646;28;20413;-78
2021/09/29 04:17:14;;;;;;;1009.28;900.90;;;;;;;;;;5005953;28;20029;-78
2021/09/29 04:19:40;;;;;;;1020.45;911.38;;;;;;;;;;5007307;28;20033;-78
2021/09/29 04:22:10;;;;;;;1016.17;907.42;;;;;;;;;;5004191;28;20445;-79
2021/09/29 04:24:40;;;;;;;1013.63;904.85;;;;;;;;;;5016680;28;20462;-79
2021/09/29 04:27:07;;;;;;;1011.95;903.70;;;;;;;;;;5005132;28;20531;-78
2021/09/29 04:29:33;;;;;;;1011.65;902.83;;;;;;;;;;5007040;28;20088;-79
2021/09/29 04:31:59;;;;;;;1011.40;902.75;;;;;;;;;;5005266;28;20474;-79
2021/09/29 04:34:26;;;;;;;1012.35;903.85;;;;;;;;;;5003937;28;20156;-79
2021/09/29 04:36:52;;;;;;;1010.63;902.13;;;;;;;;;;5007621;28;20117;-79
2021/09/29 04:39:18;;;;;;;1015.95;907.35;;;;;;;;;;5007757;28;20081;-79
2021/09/29 04:41:44;;;;;;;1013.38;904.60;;;;;;;;;;5006724;28;20056;-78
2021/09/29 04:44:10;;;;;;;1016.35;907.75;;;;;;;;;;5013582;28;20030;-78
2021/09/29 04:46:36;;;;;;;1006.63;898.53;;;;;;;;;;5004833;28;20030;-78
2021/09/29 04:49:02;;;;;;;1006.55;898.30;;;;;;;;;;5007610;28;20517;-78
2021/09/29 04:51:29;;;;;;;1016.53;907.70;;;;;;;;;;5005719;28;20033;-78
2021/09/29 04:53:55;;;;;;;1009.60;900.95;;;;;;;;;;5006066;28;20034;-78
2021/09/29 04:56:21;;;;;;;997.92;889.97;;;;;;;;;;5006522;28;20430;-78
2021/09/29 04:58:47;;;;;;;1015.45;906.70;;;;;;;;;;5007994;28;20049;-78
2021/09/29 05:01:19;;;;;;;1003.42;894.95;;;;;;;;;;5005880;28;20026;-78
2021/09/29 05:03:45;;;;;;;1000.15;891.80;;;;;;;;;;5004766;28;20030;-78
2021/09/29 05:06:11;;;;;;;1007.28;898.67;;;;;;;;;;5007295;28;20041;-78
2021/09/29 05:08:38;;;;;;;1001.38;893.30;;;;;;;;;;5005914;28;20484;-78
2021/09/29 05:11:06;;;;;;;996.33;888.17;;;;;;;;;;5006233;28;20038;-79
2021/09/29 05:13:33;;;;;;;996.00;887.97;;;;;;;;;;5005399;28;20053;-78
2021/09/29 05:16:00;;;;;;;980.45;872.75;;;;;;;;;;5008097;28;20025;-78
2021/09/29 05:18:26;;;;;;;977.33;870.05;;;;;;;;;;5007263;28;20079;-78
2021/09/29 05:20:52;;;;;;;995.15;887.05;;;;;;;;;;5003187;28;20087;-78
2021/09/29 05:23:18;;;;;;;991.65;883.75;;;;;;;;;;4998613;28;20069;-78
2021/09/29 05:25:44;;;;;;;993.53;885.47;;;;;;;;;;5004184;28;20095;-78
2021/09/29 05:28:14;;;;;;;974.88;867.63;;;;;;;;;;5006488;28;20030;-79
2021/09/29 05:30:40;;;;;;;976.65;869.22;;;;;;;;;;5005289;28;20030;-78
2021/09/29 05:33:06;;;;;;;995.75;887.33;;;;;;;;;;5004890;28;20389;-79
2021/09/29 05:35:32;;;;;;;967.33;859.85;;;;;;;;;;4998041;28;20038;-78
2021/09/29 05:37:58;;;;;;;991.78;883.72;;;;;;;;;;5005717;28;20096;-78
2021/09/29 05:40:24;;;;;;;982.92;875.40;;;;;;;;;;5006321;28;20030;-79
2021/09/29 05:42:50;;;;;;;984.47;876.58;;;;;;;;;;5008332;28;20033;-79
2021/09/29 05:45:16;;;;;;;990.50;882.42;;;;;;;;;;5008653;28;20079;-78
2021/09/29 05:47:42;;;;;;;983.08;875.53;;;;;;;;;;5008896;28;20026;-78
2021/09/29 05:50:08;;;;;;;999.90;891.58;;;;;;;;;;5014587;28;20033;-78
2021/09/29 05:52:34;;;;;;;994.97;886.72;;;;;;;;;;5009195;28;20033;-78
2021/09/29 05:55:00;;;;;;;1001.60;893.30;;;;;;;;;;5008420;28;20037;-79
2021/09/29 05:57:27;;;;;;;994.13;886.10;;;;;;;;;;5008170;28;20476;-78
2021/09/29 05:59:53;;;;;;;975.00;868.00;;;;;;;;;;5008977;28;20033;-78
2021/09/29 06:02:19;;;;;;;978.03;870.45;;;;;;;;;;5010078;28;20026;-79
2021/09/29 06:04:44;;;;;;;1004.80;896.42;;;;;;;;;;5008029;28;20123;-80
2021/09/29 06:07:12;;;;;;;984.13;876.88;;;;;;;;;;5010342;28;20026;-79
2021/09/29 06:09:40;;;;;;;985.35;877.90;;;;;;;;;;5007939;28;20470;-79
2021/09/29 06:12:08;;;;;;;990.50;882.55;;;;;;;;;;5009913;28;20421;-78
2021/09/29 06:14:34;;;;;;;998.03;889.50;;;;;;;;;;5009447;28;20285;-79
2021/09/29 06:19:50;;;;;;;992.20;883.88;;;;;;;;;;5006761;28;20095;-79
2021/09/29 06:22:16;;;;;;;981.92;868.55;;;;;;;;;;5008036;28;20402;-80
2021/09/29 06:24:42;;;;;;;990.35;882.53;;;;;;;;;;5014881;28;20144;-81
2021/09/29 06:27:09;;;;;;;978.22;871.03;;;;;;;;;;5004579;28;20183;-79
2021/09/29 06:29:35;;;;;;;998.40;890.13;;;;;;;;;;5003989;28;20030;-80
2021/09/29 06:32:02;;;;;;;978.22;870.80;;;;;;;;;;5003627;28;20419;-80
2021/09/29 06:34:28;;;;;;;977.60;870.22;;;;;;;;;;5000951;28;20030;-78
2021/09/29 06:36:54;;;;;;;980.35;872.83;;;;;;;;;;5004577;28;20029;-77
2021/09/29 06:39:20;;;;;;;969.20;862.45;;;;;;;;;;5000570;28;20413;-77
2021/09/29 06:41:46;;;;;;;984.55;876.65;;;;;;;;;;5007032;28;20030;-78
2021/09/29 06:44:13;;;;;;;976.15;869.03;;;;;;;;;;5007109;28;20516;-77
2021/09/29 06:46:39;;;;;;;974.20;867.10;;;;;;;;;;5003766;28;20069;-78
2021/09/29 06:49:05;;;;;;;962.97;855.55;;;;;;;;;;5007077;28;20434;-79
2021/09/29 06:51:31;;;;;;;979.30;871.95;;;;;;;;;;5005487;28;20022;-78
2021/09/29 06:53:57;;;;;;;999.25;890.90;;;;;;;;;;5005277;28;20026;-77
2021/09/29 06:56:23;;;;;;;989.53;881.75;;;;;;;;;;5008184;28;20033;-78
2021/09/29 06:58:52;;;;;;;978.25;870.88;;;;;;;;;;5008265;28;20073;-77
2021/09/29 07:01:18;;;;;;;952.30;841.78;;;;;;;;;;5006906;28;20038;-78
2021/09/29 07:03:44;;;;;;;997.30;889.00;;;;;;;;;;5005343;28;20065;-79
2021/09/29 07:06:10;;;;;;;982.20;874.78;;;;;;;;;;5004173;28;20540;-78
2021/09/29 07:08:37;;;;;;;992.47;884.80;;;;;;;;;;5013221;28;20031;-78
2021/09/29 07:11:03;;;;;;;998.33;890.25;;;;;;;;;;5007463;28;20034;-79
2021/09/29 07:13:30;;;;;;;1002.85;894.55;;;;;;;;;;5009268;28;20053;-79
2021/09/29 07:15:56;;;;;;;1001.28;893.10;;;;;;;;;;5007815;28;20069;-78
2021/09/29 07:18:27;;;;;;;1010.35;901.75;;;;;;;;;;5007445;28;20030;-79
2021/09/29 07:20:53;;;;;;;994.70;886.95;;;;;;;;;;5006903;28;20053;-78
2021/09/29 07:23:19;;;;;;;1010.78;902.47;;;;;;;;;;5014975;28;20058;-80
2021/09/29 07:25:45;;;;;;;1017.38;908.67;;;;;;;;;;5005997;28;20851;-77
2021/09/29 07:28:11;;;;;;;1008.22;900.05;;;;;;;;;;5008167;28;20042;-78
2021/09/29 07:30:38;;;;;;;1009.97;901.70;;;;;;;;;;5008353;28;20088;-79
2021/09/29 07:33:08;;;;;;;1016.78;908.25;;;;;;;;;;5006079;28;20514;-79
2021/09/29 07:35:37;;;;;;;1011.70;903.45;;;;;;;;;;5005099;28;20034;-79
2021/09/29 07:38:03;;;;;;;1027.50;918.45;;;;;;;;;;5006379;28;20360;-80
2021/09/29 07:40:29;;;;;;;1029.65;920.33;;;;;;;;;;5008450;28;20033;-80
2021/09/29 07:42:56;;;;;;;1030.38;921.20;;;;;;;;;;5007381;28;20041;-82
2021/09/29 07:45:22;;;;;;;1009.10;901.03;;;;;;;;;;5011874;28;20039;-81
2021/09/29 07:47:48;;;;;;;1036.00;926.47;;;;;;;;;;5005950;28;20036;-79
2021/09/29 07:50:16;;;;;;;1035.00;925.40;;;;;;;;;;5011728;28;20138;-80
2021/09/29 07:52:42;;;;;;;1013.10;905.00;;;;;;;;;;5007819;28;20025;-81
2021/09/29 07:55:08;;;;;;;1022.50;912.05;;;;;;;;;;5007822;28;20052;-81
2021/09/29 07:57:34;;;;;;;1041.53;931.83;;;;;;;;;;5008154;28;20067;-80
2021/09/29 08:00:00;;;;;;;995.17;888.13;;;;;;;;;;5005927;28;20060;-80
2021/09/29 08:02:26;;;;;;;1018.67;910.47;;;;;;;;;;5007643;28;20030;-80
2021/09/29 08:04:56;;;;;;;1038.70;929.10;;;;;;;;;;5003977;28;20034;-80
2021/09/29 08:07:22;;;;;;;1031.97;922.67;;;;;;;;;;5006239;28;20084;-79
2021/09/29 08:09:48;;;;;;;1013.70;905.58;;;;;;;;;;5006345;28;20080;-78
2021/09/29 08:12:14;;;;;;;1022.97;914.35;;;;;;;;;;5005418;28;20033;-77
2021/09/29 08:14:40;;;;;;;1018.78;909.97;;;;;;;;;;5005683;28;20045;-77
2021/09/29 08:17:09;;;;;;;1015.88;907.33;;;;;;;;;;5007238;28;20343;-78
2021/09/29 08:19:35;;;;;;;1021.03;912.20;;;;;;;;;;5005447;28;20061;-79
2021/09/29 08:22:04;;;;;;;1031.95;922.78;;;;;;;;;;5006159;28;20029;-78
2021/09/29 08:24:43;;;;;;;1021.25;912.55;;;;;;;;;;5005782;28;20018;-79
2021/09/29 08:29:51;;;;;;;1026.93;918.15;;;;;;;;;;5007682;28;20033;-78
2021/09/29 08:32:43;;;;;;;1028.80;919.63;;;;;;;;;;5006973;28;20046;-78
2021/09/29 08:35:23;;;;;;;987.97;880.92;;;;;;;;;;4997565;28;20091;-78
2021/09/29 08:38:27;;;;;;;1004.88;896.83;;;;;;;;;;5000534;28;20129;-78
2021/09/29 08:41:00;;;;;;;989.20;881.90;;;;;;;;;;5004079;28;20509;-78
2021/09/29 08:46:09;;;;;;;1000.08;892.60;;;;;;;;;;5007539;28;20398;-79
2021/09/29 08:48:43;;;;;;;1010.90;902.58;;;;;;;;;;5007694;28;20520;-79
2021/09/29 09:15:53;;;;;;;1029.47;920.13;;;;;;;;;;5008098;28;20088;-79
2021/09/29 09:18:21;;;;;;;1020.58;911.63;;;;;;;;;;5009622;28;20088;-78
2021/09/29 09:21:00;;;;;;;1023.33;914.38;;;;;;;;;;5010496;28;20014;-79
2021/09/29 09:23:52;;;;;;;1024.15;915.38;;;;;;;;;;5009745;28;20506;-80
2021/09/29 09:26:22;;;;;;;1018.58;909.47;;;;;;;;;;5006019;28;20410;-78
2021/09/29 09:28:49;;;;;;;1035.88;926.17;;;;;;;;;;5010179;28;20032;-79
2021/09/29 09:31:15;;;;;;;1028.30;919.65;;;;;;;;;;5013906;28;20021;-78
2021/09/29 09:33:55;;;;;;;1033.10;924.08;;;;;;;;;;5008646;28;20701;-79
2021/09/29 09:36:27;;;;;;;1018.88;910.33;;;;;;;;;;5009654;28;20126;-79
2021/09/29 09:38:53;;;;;;;1028.30;919.28;;;;;;;;;;5010262;28;20114;-79
2021/09/29 09:41:19;;;;;;;1032.97;923.78;;;;;;;;;;5010486;28;20109;-77
2021/09/29 09:43:53;;;;;;;1032.03;923.05;;;;;;;;;;5009565;28;20391;-79
2021/09/29 09:46:21;;;;;;;1004.38;896.63;;;;;;;;;;5010683;28;20121;-78
2021/09/29 09:48:57;;;;;;;1025.10;916.17;;;;;;;;;;5010180;28;20068;-80
2021/09/29 09:51:23;;;;;;;1026.25;917.28;;;;;;;;;;5010518;28;20068;-80
2021/09/29 09:53:53;;;;;;;1017.50;908.83;;;;;;;;;;5010612;28;20036;-80
2021/09/29 09:56:21;;;;;;;1011.25;903.10;;;;;;;;;;5008426;28;20041;-80
2021/09/29 09:58:48;;;;;;;1016.80;908.30;;;;;;;;;;5003148;28;20042;-80
2021/09/29 10:01:20;;;;;;;1021.90;913.03;;;;;;;;;;5009569;28;20030;-80
2021/09/29 10:03:46;;;;;;;1028.90;919.55;;;;;;;;;;5007279;28;20470;-79
2021/09/29 10:06:13;;;;;;;1027.90;918.72;;;;;;;;;;5014728;28;20129;-81
2021/09/29 10:08:42;;;;;;;965.58;859.72;;;;;;;;;;5022731;28;20271;-79
2021/09/29 10:11:20;;;;;;;987.67;880.70;;;;;;;;;;5006630;28;20052;-81
2021/09/29 10:28:00;;;;;;;995.80;888.10;;;;;;;;;;5001452;28;20037;-79
2021/09/29 10:30:39;;;;;;;1007.38;899.22;;;;;;;;;;5007810;28;20382;-79
2021/09/29 10:33:07;;;;;;;999.83;892.05;;;;;;;;;;5000509;28;20017;-78
2021/09/29 10:35:42;;;;;;;1005.67;897.97;;;;;;;;;;5008480;28;20060;-78
2021/09/29 10:43:28;;;;;;;993.97;886.78;;;;;;;;;;5003545;28;20113;-78
2021/09/29 10:46:17;;;;;;;991.13;883.95;;;;;;;;;;5003064;28;20456;-80
2021/09/29 10:48:51;;;;;;;984.55;877.58;;;;;;;;;;5006420;28;20406;-77
2021/09/29 11:08:01;;;;;;;994.05;887.08;;;;;;;;;;5011235;28;20033;-79
2021/09/29 11:32:53;;;;;;;992.08;884.40;;;;;;;;;;4958684;28;20034;-79
2021/09/29 12:08:35;;;;;;;996.05;887.80;;;;;;;;;;5008377;28;20474;-79
2021/09/29 12:11:10;;;;;;;992.15;884.13;;;;;;;;;;5009296;28;20032;-77
2021/09/29 12:13:38;;;;;;;988.60;880.78;;;;;;;;;;5005565;28;20033;-77
2021/09/29 12:16:05;;;;;;;986.50;878.58;;;;;;;;;;5003086;28;20022;-82
2021/09/29 12:18:31;;;;;;;986.72;878.90;;;;;;;;;;5007028;28;20061;-82
2021/09/29 12:20:57;;;;;;;994.65;886.67;;;;;;;;;;5009427;28;20021;-82
2021/09/29 12:23:23;;;;;;;1001.90;893.53;;;;;;;;;;5007295;28;20108;-80
2021/09/29 12:25:55;;;;;;;990.03;881.92;;;;;;;;;;5007277;28;20076;-81
2021/09/29 12:31:24;;;;;;;1008.38;899.67;;;;;;;;;;5006963;28;20038;-82
2021/09/29 12:33:56;;;;;;;991.63;883.47;;;;;;;;;;4999207;28;20061;-83
2021/09/29 12:36:35;;;;;;;1002.00;893.75;;;;;;;;;;5008524;28;20033;-83
2021/09/29 12:39:02;;;;;;;1008.53;900.10;;;;;;;;;;5006598;28;20025;-83
2021/09/29 12:41:28;;;;;;;1011.88;903.35;;;;;;;;;;5006056;28;20472;-83
2021/09/29 12:44:05;;;;;;;1018.33;909.25;;;;;;;;;;5006657;28;20029;-83
2021/09/29 12:46:31;;;;;;;1014.63;906.10;;;;;;;;;;5006693;28;20034;-83
2021/09/29 12:48:57;;;;;;;1022.80;913.65;;;;;;;;;;5006728;28;20030;-82
2021/09/29 12:51:25;;;;;;;1022.30;913.33;;;;;;;;;;5001922;28;20056;-84
2021/09/29 12:53:56;;;;;;;1034.13;924.65;;;;;;;;;;5003199;28;20088;-84
2021/09/29 12:56:22;;;;;;;1013.88;905.33;;;;;;;;;;5006705;28;20026;-83
2021/09/29 12:58:48;;;;;;;1036.82;927.38;;;;;;;;;;5005921;28;20050;-82
2021/09/29 13:01:15;;;;;;;1031.82;922.72;;;;;;;;;;5006598;28;20030;-85
2021/09/29 13:03:41;;;;;;;1031.93;922.63;;;;;;;;;;5005155;28;20053;-83
2021/09/29 13:06:08;;;;;;;1036.03;926.75;;;;;;;;;;5006261;28;20109;-83
2021/09/29 13:08:35;;;;;;;1029.85;920.78;;;;;;;;;;5006370;28;20050;-82
2021/09/29 13:11:00;;;;;;;1019.22;910.50;;;;;;;;;;5006408;28;20033;-83
2021/09/29 13:13:27;;;;;;;1028.28;919.10;;;;;;;;;;5005964;28;20041;-85
2021/09/29 13:15:56;;;;;;;1015.92;907.55;;;;;;;;;;5005948;28;20044;-85
2021/09/29 13:26:28;;;;;;;1034.25;925.03;;;;;;;;;;5007768;28;20069;-83
2021/09/29 13:37:07;;;;;;;1035.53;926.22;;;;;;;;;;5003869;28;20068;-82
2021/09/29 13:39:33;;;;;;;1042.63;933.03;;;;;;;;;;4997624;28;20470;-82
2021/09/29 13:41:59;;;;;;;1032.00;922.85;;;;;;;;;;5002838;28;20024;-84
2021/09/29 13:44:26;;;;;;;1037.45;928.03;;;;;;;;;;4999403;28;20474;-83
2021/09/29 13:46:52;;;;;;;1034.13;924.80;;;;;;;;;;5005438;28;20022;-83
2021/09/29 13:49:20;;;;;;;1033.80;924.60;;;;;;;;;;5002546;28;20046;-79
2021/09/29 13:51:49;;;;;;;1020.20;911.42;;;;;;;;;;5003003;28;20041;-83
2021/09/29 13:54:20;;;;;;;1013.20;904.80;;;;;;;;;;5005839;28;20206;-82
2021/09/29 13:57:09;;;;;;;1002.78;894.40;;;;;;;;;;5003957;28;20060;-84
2021/09/29 13:59:51;;;;;;;1001.23;892.80;;;;;;;;;;5006482;28;20244;-83
2021/09/29 14:29:36;;;;;;;1011.95;903.42;;;;;;;;;;5009029;28;20064;-84
2021/09/29 14:32:08;;;;;;;1031.57;922.20;;;;;;;;;;5004950;28;20078;-83
2021/09/29 14:34:34;;;;;;;1020.70;912.13;;;;;;;;;;5005815;28;20021;-84
2021/09/29 14:37:02;;;;;;;1030.63;921.38;;;;;;;;;;5007388;28;20394;-84
2021/09/29 14:39:28;;;;;;;1035.88;926.60;;;;;;;;;;4999670;28;20037;-83
2021/09/29 14:41:54;;;;;;;1041.97;932.50;;;;;;;;;;5015083;28;20030;-83
2021/09/29 14:44:20;;;;;;;1027.45;918.55;;;;;;;;;;5008773;28;20029;-82
2021/09/29 14:46:46;;;;;;;1032.10;923.13;;;;;;;;;;5009876;28;20040;-82
2021/09/29 14:49:12;;;;;;;1023.53;914.67;;;;;;;;;;5009436;28;20124;-85
2021/09/29 14:51:38;;;;;;;1027.28;918.47;;;;;;;;;;5007362;28;20044;-85
2021/09/29 14:54:05;;;;;;;1029.50;920.33;;;;;;;;;;5008891;28;20322;-82
2021/09/29 14:56:32;;;;;;;1026.97;918.20;;;;;;;;;;5007112;28;20052;-78
2021/09/29 14:58:57;;;;;;;1027.05;918.20;;;;;;;;;;5007092;28;20050;-83
2021/09/29 15:01:24;;;;;;;1023.45;914.80;;;;;;;;;;5002504;28;20427;-83
2021/09/29 15:03:51;;;;;;;1030.68;921.53;;;;;;;;;;5002434;28;20068;-85
2021/09/29 15:06:17;;;;;;;1036.15;926.95;;;;;;;;;;5003158;28;20242;-82
2021/09/29 15:08:43;;;;;;;1039.20;929.92;;;;;;;;;;5007540;28;20033;-83
2021/09/29 15:11:11;;;;;;;1021.95;913.58;;;;;;;;;;5008049;28;20613;-78
2021/09/29 15:13:48;;;;;;;1024.53;915.53;;;;;;;;;;5005257;28;20497;-81
2021/09/29 15:16:20;;;;;;;1004.83;896.83;;;;;;;;;;5007897;28;20029;-82
2021/09/29 15:18:55;;;;;;;994.65;886.97;;;;;;;;;;5002862;28;20113;-80
2021/09/29 15:24:04;;;;;;;1007.25;898.85;;;;;;;;;;5006026;28;20520;-82
2021/09/29 15:29:18;;;;;;;998.35;890.30;;;;;;;;;;5007428;28;20049;-82
2021/09/29 15:32:16;;;;;;;992.88;884.92;;;;;;;;;;5014006;28;20034;-82
2021/09/29 15:48:52;;;;;;;962.22;854.50;;;;;;;;;;5007484;28;20057;-82
2021/09/29 15:51:20;;;;;;;971.60;864.25;;;;;;;;;;5008572;28;20037;-83
2021/09/29 16:02:13;;;;;;;972.55;865.72;;;;;;;;;;5010265;28;20508;-83
2021/09/29 16:04:49;;;;;;;980.58;873.25;;;;;;;;;;5005739;28;20026;-82
2021/09/29 16:07:24;;;;;;;973.17;866.10;;;;;;;;;;5006241;28;20028;-83
2021/09/29 16:31:29;;;;;;;969.13;862.60;;;;;;;;;;5008784;28;20397;-81
2021/09/29 16:34:18;;;;;;;979.33;872.13;;;;;;;;;;5006647;28;20465;-81
2021/09/29 16:36:42;;;;;;;972.85;865.85;;;;;;;;;;4994259;28;20037;-81
2021/09/29 16:39:08;;;;;;;962.20;855.88;;;;;;;;;;4997205;28;20026;-81
2021/09/29 16:41:35;;;;;;;963.58;857.08;;;;;;;;;;5005388;28;20022;-80
2021/09/29 16:44:01;;;;;;;967.60;860.92;;;;;;;;;;5005787;28;20025;-81
2021/09/29 16:46:31;;;;;;;968.58;861.63;;;;;;;;;;5036367;28;20034;-81
2021/09/29 16:48:57;;;;;;;965.28;858.53;;;;;;;;;;5004899;28;20022;-81
2021/09/29 16:51:28;;;;;;;969.28;862.53;;;;;;;;;;5007120;28;20152;-83
2021/09/29 16:54:03;;;;;;;968.17;861.72;;;;;;;;;;5009223;28;20093;-81
2021/09/29 16:56:31;;;;;;;973.08;866.33;;;;;;;;;;5005003;28;20132;-82
2021/09/29 16:59:03;;;;;;;977.50;870.40;;;;;;;;;;5006017;28;20078;-81
2021/09/29 17:01:30;;;;;;;971.03;864.38;;;;;;;;;;5005373;28;20037;-80
2021/09/29 17:03:57;;;;;;;969.55;862.95;;;;;;;;;;5004287;28;20528;-81
2021/09/29 17:06:24;;;;;;;962.78;856.60;;;;;;;;;;5005515;28;20465;-81
2021/09/29 17:08:50;;;;;;;962.78;856.45;;;;;;;;;;5005733;28;20029;-80
2021/09/29 17:11:16;;;;;;;961.50;853.55;;;;;;;;;;5006572;28;20719;-80
2021/09/29 17:13:44;;;;;;;959.17;845.88;;;;;;;;;;5003851;28;20046;-82
2021/09/29 17:16:12;;;;;;;953.00;837.80;;;;;;;;;;5003726;28;20037;-81
2021/09/29 17:18:39;;;;;;;955.97;844.35;;;;;;;;;;5005861;28;20393;-81
2021/09/29 17:21:05;;;;;;;951.53;833.80;;;;;;;;;;5007657;28;20096;-81
2021/09/29 17:23:35;;;;;;;951.03;826.85;;;;;;;;;;5004714;28;20076;-81
2021/09/29 17:26:04;;;;;;;951.10;827.67;;;;;;;;;;5004274;28;20231;-82
2021/09/29 17:28:30;;;;;;;949.35;830.80;;;;;;;;;;5003027;28;20060;-80
2021/09/29 17:31:01;;;;;;;950.78;824.90;;;;;;;;;;5007514;28;20014;-80
2021/09/29 17:33:34;;;;;;;;;;;;;;;;;;5003354;28;20526;-80